Terminal Aerodrome Forecast
Issued by NWS

Home | Current Version | Previous Version | Text Only | Print | Product List | Glossary On
Versions: 1 2 3 4 5 6 7 8 9 10 11 12 13 14 15 16 17 18
000
FTUS43 KPAH 232320
TAFOWB
TAF
KOWB 232320Z 2400/2424 31012G18KT P6SM OVC016
     FM240400 31006KT P6SM OVC020
     FM240700 30003KT P6SM OVC025
     FM241400 VRB04KT P6SM SCT030=

USA.gov is the U.S. government's official web portal to all federal, state and local government web resources and services.